Time;durP1;ratioP1;P1;durP2;ratioP2;P2;SDS_P1;SDS_P2;PMS_P1;PMS_P2;Temp;Humidity;BMP_temperature;BMP_pressure;BME280_temperature;BME280_humidity;BME280_pressure;Samples;Min_cycle;Max_cycle;Signal;HPM_P1;HPM_P2
2023/12/04 00:45:34;;;;;;;10.48;4.10;;;;;;;;;;5890948;24;20224;-72
2023/12/04 03:24:03;;;;;;;12.32;4.07;;;;;;;;;;5797487;24;20033;-72
2023/12/04 03:31:01;;;;;;;13.93;5.40;;;;;;;;;;5841714;24;20080;-73
2023/12/04 03:38:09;;;;;;;16.77;5.55;;;;;;;;;;5803121;24;20053;-73
2023/12/04 04:42:29;;;;;;;18.77;5.28;;;;;;;;;;6044978;23;20090;-72
2023/12/04 04:45:52;;;;;;;14.77;5.53;;;;;;;;;;6015285;23;20425;-73
2023/12/04 04:48:21;;;;;;;14.90;4.72;;;;;;;;;;5951544;24;20082;-72
2023/12/04 04:51:08;;;;;;;16.05;4.88;;;;;;;;;;6093516;23;20484;-71
2023/12/04 05:01:41;;;;;;;18.98;5.85;;;;;;;;;;6036458;23;20045;-73
2023/12/04 05:08:19;;;;;;;11.15;4.10;;;;;;;;;;6002058;23;20023;-73
2023/12/04 05:11:20;;;;;;;9.17;4.63;;;;;;;;;;5988089;23;20129;-73
2023/12/04 05:14:23;;;;;;;13.35;4.60;;;;;;;;;;6065169;23;20014;-73
2023/12/04 05:17:28;;;;;;;10.25;4.60;;;;;;;;;;6037661;23;20389;-73
2023/12/04 05:24:18;;;;;;;11.05;4.95;;;;;;;;;;6008183;23;20067;-72
2023/12/04 05:38:00;;;;;;;12.38;5.03;;;;;;;;;;5869505;24;20029;-73
2023/12/04 05:41:04;;;;;;;13.50;5.25;;;;;;;;;;5975590;23;20055;-72
2023/12/04 05:51:11;;;;;;;16.13;4.60;;;;;;;;;;5812907;24;20106;-72
2023/12/04 05:54:04;;;;;;;10.40;4.00;;;;;;;;;;5843055;24;20022;-73
2023/12/04 05:56:58;;;;;;;12.45;3.92;;;;;;;;;;5916503;23;20034;-72
2023/12/04 06:00:04;;;;;;;10.18;4.43;;;;;;;;;;6007660;23;20134;-73
2023/12/04 06:03:40;;;;;;;13.32;4.50;;;;;;;;;;6007155;23;20016;-72
2023/12/04 06:11:00;;;;;;;13.75;4.25;;;;;;;;;;5812792;24;20100;-73
2023/12/04 06:14:22;;;;;;;12.35;3.67;;;;;;;;;;5787224;24;20414;-71
2023/12/04 06:17:44;;;;;;;15.65;4.45;;;;;;;;;;5793472;24;20100;-71
2023/12/04 06:25:15;;;;;;;12.70;4.03;;;;;;;;;;5789222;24;20030;-71
2023/12/04 06:27:57;;;;;;;12.85;4.10;;;;;;;;;;5823268;24;20065;-73
2023/12/04 06:35:15;;;;;;;6.90;2.92;;;;;;;;;;5863636;24;20026;-72
2023/12/04 06:41:42;;;;;;;16.00;4.30;;;;;;;;;;5882577;23;20016;-72
2023/12/04 06:47:54;;;;;;;19.90;6.63;;;;;;;;;;6039472;23;19936;-76
2023/12/04 06:59:04;;;;;;;25.52;18.70;;;;;;;;;;6154648;23;20062;-75
2023/12/04 08:25:37;;;;;;;13.70;4.38;;;;;;;;;;5892294;24;20049;-77
2023/12/04 08:51:41;;;;;;;8.93;3.90;;;;;;;;;;5984408;23;20027;-77
2023/12/04 09:10:44;;;;;;;;;;;;;;;;;;;;;
2023/12/04 09:26:06;;;;;;;11.07;6.05;;;;;;;;;;5878855;24;20037;-76
2023/12/04 09:33:46;;;;;;;12.65;5.13;;;;;;;;;;5819171;24;20029;-77
2023/12/04 09:41:18;;;;;;;11.48;5.10;;;;;;;;;;5969932;23;20124;-77
2023/12/04 09:44:34;;;;;;;13.13;4.45;;;;;;;;;;6153821;23;20017;-76
2023/12/04 09:47:44;;;;;;;10.80;4.70;;;;;;;;;;6111000;23;20379;-76
2023/12/04 09:54:47;;;;;;;;;;;;;;;;;;;;;
2023/12/04 10:05:13;;;;;;;14.63;5.13;;;;;;;;;;5923200;24;20101;-78
2023/12/04 10:23:46;;;;;;;12.00;4.97;;;;;;;;;;5922090;24;20028;-77
2023/12/04 10:27:11;;;;;;;11.13;4.63;;;;;;;;;;5923092;24;20028;-77
2023/12/04 10:31:02;;;;;;;11.32;5.20;;;;;;;;;;5937682;24;20025;-76
2023/12/04 10:37:16;;;;;;;13.27;4.80;;;;;;;;;;5952127;23;20160;-75
2023/12/04 10:43:50;;;;;;;10.13;4.53;;;;;;;;;;6154680;23;20024;-77
2023/12/04 10:50:40;;;;;;;13.88;4.63;;;;;;;;;;6143983;23;20044;-78
2023/12/04 10:54:24;;;;;;;15.55;5.15;;;;;;;;;;6120548;23;20013;-77
2023/12/04 10:57:35;;;;;;;10.30;4.97;;;;;;;;;;6063936;23;20104;-76
2023/12/04 11:00:30;;;;;;;6.95;4.70;;;;;;;;;;6105199;23;20096;-77
2023/12/04 11:04:06;;;;;;;16.15;4.75;;;;;;;;;;6131617;23;20022;-77
2023/12/04 11:07:34;;;;;;;18.50;5.70;;;;;;;;;;6153769;23;20140;-77
2023/12/04 11:10:15;;;;;;;7.63;3.15;;;;;;;;;;6139841;23;20017;-76
2023/12/04 11:13:13;;;;;;;9.55;3.97;;;;;;;;;;6125981;23;20087;-76
2023/12/04 11:20:11;;;;;;;10.27;3.67;;;;;;;;;;6154576;23;20021;-79
2023/12/04 11:22:54;;;;;;;6.40;3.13;;;;;;;;;;6130228;23;20009;-77
2023/12/04 11:26:00;;;;;;;7.10;3.05;;;;;;;;;;6130298;23;20019;-76
2023/12/04 11:40:07;;;;;;;11.13;4.47;;;;;;;;;;6154574;23;20073;-77
2023/12/04 11:50:30;;;;;;;7.68;4.78;;;;;;;;;;5978183;23;20020;-77
2023/12/04 11:53:16;;;;;;;9.43;5.28;;;;;;;;;;5955794;24;20086;-77
2023/12/04 12:01:00;;;;;;;7.43;3.70;;;;;;;;;;5922822;24;20032;-77
2023/12/04 12:11:56;;;;;;;8.00;4.10;;;;;;;;;;6026968;23;20051;-77
2023/12/04 12:14:36;;;;;;;;;;;;;;;;;;6013452;23;20019;-77
2023/12/04 12:17:21;;;;;;;12.75;4.47;;;;;;;;;;6050579;23;19940;-79
2023/12/04 12:20:04;;;;;;;10.88;5.03;;;;;;;;;;6153827;23;20025;-78
2023/12/04 12:23:00;;;;;;;11.07;5.10;;;;;;;;;;6150949;23;20447;-78
2023/12/04 12:34:24;;;;;;;10.88;5.10;;;;;;;;;;6156029;23;20032;-79
2023/12/04 12:44:40;;;;;;;8.85;3.83;;;;;;;;;;6078512;23;20020;-76
2023/12/04 12:51:39;;;;;;;7.20;3.13;;;;;;;;;;6040684;23;20074;-78
2023/12/04 13:01:56;;;;;;;7.50;3.30;;;;;;;;;;5929740;24;20026;-79
2023/12/04 13:09:06;;;;;;;8.75;4.03;;;;;;;;;;5961565;24;20112;-77
2023/12/04 13:11:52;;;;;;;7.32;3.67;;;;;;;;;;5910709;24;20016;-77
2023/12/04 13:14:34;;;;;;;8.73;3.88;;;;;;;;;;5978970;23;20020;-77
2023/12/04 13:25:08;;;;;;;8.20;4.30;;;;;;;;;;6016137;23;20088;-79
2023/12/04 13:32:02;;;;;;;8.85;4.28;;;;;;;;;;6037150;23;20067;-76
2023/12/04 13:34:46;;;;;;;;;;;;;;;;;;;;;
2023/12/04 13:37:56;;;;;;;8.60;4.03;;;;;;;;;;6013430;23;20101;-76
2023/12/04 13:41:08;;;;;;;10.40;3.90;;;;;;;;;;5980250;23;20081;-76
2023/12/04 13:43:59;;;;;;;10.20;4.20;;;;;;;;;;6008355;23;20031;-76
2023/12/04 13:47:29;;;;;;;;;;;;;;;;;;;;;
2023/12/04 13:50:37;;;;;;;7.30;3.97;;;;;;;;;;5961033;23;20023;-76
2023/12/04 13:53:07;;;;;;;8.43;3.50;;;;;;;;;;6034801;23;20014;-71
2023/12/04 14:01:22;;;;;;;8.38;3.70;;;;;;;;;;6129340;23;20064;-71
2023/12/04 14:03:47;;;;;;;8.02;4.05;;;;;;;;;;6154483;23;20013;-73
2023/12/04 14:06:14;;;;;;;5.68;3.53;;;;;;;;;;6154755;23;20002;-72
2023/12/04 14:08:40;;;;;;;9.88;4.25;;;;;;;;;;6128190;23;20100;-72
2023/12/04 14:11:07;;;;;;;6.32;3.90;;;;;;;;;;6153870;23;20001;-72
2023/12/04 14:13:33;;;;;;;6.13;4.05;;;;;;;;;;6154393;23;20499;-72
2023/12/04 14:16:01;;;;;;;10.35;4.40;;;;;;;;;;6154107;23;19997;-72
2023/12/04 14:18:27;;;;;;;11.05;4.78;;;;;;;;;;6154433;23;20074;-73
2023/12/04 14:20:52;;;;;;;12.60;4.88;;;;;;;;;;6154334;23;20019;-72
2023/12/04 14:23:18;;;;;;;10.65;4.70;;;;;;;;;;6154544;23;20021;-72
2023/12/04 14:25:45;;;;;;;11.15;5.15;;;;;;;;;;6154118;23;20112;-73
2023/12/04 14:28:11;;;;;;;8.20;4.50;;;;;;;;;;6154357;23;20013;-76
2023/12/04 14:30:37;;;;;;;9.32;4.80;;;;;;;;;;6154409;23;20009;-72
2023/12/04 14:33:03;;;;;;;12.60;4.82;;;;;;;;;;6154489;23;20013;-72
2023/12/04 14:35:29;;;;;;;11.23;4.85;;;;;;;;;;6153974;23;20013;-74
2023/12/04 14:37:55;;;;;;;14.40;4.70;;;;;;;;;;6128109;23;20408;-72
2023/12/04 14:40:21;;;;;;;11.90;4.60;;;;;;;;;;6154123;23;20009;-72
2023/12/04 14:42:46;;;;;;;11.85;5.10;;;;;;;;;;6152565;23;20014;-74
2023/12/04 14:45:13;;;;;;;11.13;6.05;;;;;;;;;;6153278;23;19997;-72
2023/12/04 14:47:40;;;;;;;9.68;4.70;;;;;;;;;;6153909;23;20017;-73
2023/12/04 14:50:06;;;;;;;13.65;6.00;;;;;;;;;;6127323;23;20002;-72
2023/12/04 14:52:34;;;;;;;14.02;6.78;;;;;;;;;;6153232;23;20399;-73
2023/12/04 15:21:21;;;;;;;7.60;4.07;;;;;;;;;;6153482;23;20029;-72
2023/12/04 15:23:48;;;;;;;8.77;4.07;;;;;;;;;;6153733;23;20005;-72
2023/12/04 15:26:15;;;;;;;7.40;4.28;;;;;;;;;;6150724;23;20012;-72
2023/12/04 15:28:41;;;;;;;9.13;4.32;;;;;;;;;;6182953;23;20051;-72
2023/12/04 15:31:07;;;;;;;7.82;4.10;;;;;;;;;;6183007;23;20009;-73
2023/12/04 15:33:32;;;;;;;8.13;4.28;;;;;;;;;;6156825;23;20352;-72
2023/12/04 15:35:59;;;;;;;8.38;4.55;;;;;;;;;;6156073;23;20451;-72
2023/12/04 15:38:25;;;;;;;5.88;3.70;;;;;;;;;;6182364;23;20471;-72
2023/12/04 15:40:51;;;;;;;8.82;3.60;;;;;;;;;;6182905;23;20008;-72
2023/12/04 15:43:17;;;;;;;6.47;4.03;;;;;;;;;;6182533;23;20012;-74
2023/12/04 15:45:44;;;;;;;7.85;4.35;;;;;;;;;;6155831;23;20016;-72
2023/12/04 15:48:11;;;;;;;7.05;3.97;;;;;;;;;;6182635;23;20376;-71
2023/12/04 15:50:37;;;;;;;8.73;4.53;;;;;;;;;;6183389;23;20005;-71
2023/12/04 15:53:02;;;;;;;8.90;4.32;;;;;;;;;;6182882;23;20360;-69
2023/12/04 15:55:29;;;;;;;7.43;4.07;;;;;;;;;;6181244;23;20285;-71
2023/12/04 15:57:57;;;;;;;8.85;4.32;;;;;;;;;;6184190;23;20144;-71
2023/12/04 16:00:26;;;;;;;10.45;4.45;;;;;;;;;;6184910;23;20020;-71
2023/12/04 16:03:04;;;;;;;9.55;4.55;;;;;;;;;;6184732;23;19997;-77
2023/12/04 16:05:30;;;;;;;10.48;4.60;;;;;;;;;;6183715;23;20019;-73
2023/12/04 16:07:57;;;;;;;7.78;4.82;;;;;;;;;;6184716;23;20004;-71
2023/12/04 16:10:22;;;;;;;11.90;4.90;;;;;;;;;;6184721;23;20051;-71
2023/12/04 16:12:48;;;;;;;11.60;5.13;;;;;;;;;;6184682;23;19997;-72
2023/12/04 16:15:14;;;;;;;8.05;3.80;;;;;;;;;;6184354;23;20017;-71
2023/12/04 16:17:40;;;;;;;8.15;4.30;;;;;;;;;;6184127;23;20067;-72
2023/12/04 16:20:10;;;;;;;13.68;5.80;;;;;;;;;;6184150;23;20498;-71
2023/12/04 16:22:40;;;;;;;7.95;4.55;;;;;;;;;;6184405;23;20016;-72
2023/12/04 16:25:06;;;;;;;9.00;3.80;;;;;;;;;;6177923;23;20028;-71
2023/12/04 16:27:32;;;;;;;9.82;4.18;;;;;;;;;;6184076;23;20518;-71
2023/12/04 16:29:59;;;;;;;9.68;4.55;;;;;;;;;;6184046;23;20032;-71
2023/12/04 16:32:25;;;;;;;9.07;4.40;;;;;;;;;;6157688;23;20043;-71
2023/12/04 16:34:50;;;;;;;11.82;4.90;;;;;;;;;;6183280;23;20055;-71
2023/12/04 16:37:16;;;;;;;7.88;3.95;;;;;;;;;;6183668;23;20343;-70
2023/12/04 16:39:42;;;;;;;12.35;4.07;;;;;;;;;;6184004;23;20001;-72
2023/12/04 16:42:07;;;;;;;6.53;3.60;;;;;;;;;;6184843;23;20026;-71
2023/12/04 16:44:33;;;;;;;6.90;4.10;;;;;;;;;;6183958;23;20285;-72
2023/12/04 16:46:59;;;;;;;6.75;3.80;;;;;;;;;;6183242;23;20063;-72
2023/12/04 16:49:24;;;;;;;10.50;4.68;;;;;;;;;;6157630;23;20004;-71
2023/12/04 16:51:51;;;;;;;8.05;3.83;;;;;;;;;;6184268;23;20009;-70
2023/12/04 16:54:17;;;;;;;9.38;4.00;;;;;;;;;;6133273;23;20009;-71
2023/12/04 16:56:43;;;;;;;9.65;3.72;;;;;;;;;;6158001;23;20425;-72
2023/12/04 16:59:08;;;;;;;14.02;4.25;;;;;;;;;;6184288;23;20004;-72
2023/12/04 17:01:35;;;;;;;7.95;3.88;;;;;;;;;;6184100;23;20021;-71
2023/12/04 17:04:00;;;;;;;6.72;3.70;;;;;;;;;;6172524;23;20005;-71
2023/12/04 17:06:27;;;;;;;9.30;4.57;;;;;;;;;;6183833;23;20497;-71
2023/12/04 17:08:53;;;;;;;11.63;4.93;;;;;;;;;;6183241;23;20012;-72
2023/12/04 17:11:20;;;;;;;10.13;4.43;;;;;;;;;;6183409;23;20375;-71
2023/12/04 17:13:47;;;;;;;7.65;4.75;;;;;;;;;;6157755;23;20012;-72
2023/12/04 17:16:14;;;;;;;14.65;6.10;;;;;;;;;;6184017;23;20455;-69
2023/12/04 17:18:39;;;;;;;9.30;5.13;;;;;;;;;;6184759;23;20100;-68
2023/12/04 17:21:05;;;;;;;9.40;5.43;;;;;;;;;;6184251;23;20036;-69
2023/12/04 17:23:31;;;;;;;9.55;4.78;;;;;;;;;;6184084;23;20032;-68
2023/12/04 17:25:57;;;;;;;12.98;6.43;;;;;;;;;;6183194;23;20005;-68
2023/12/04 17:28:23;;;;;;;13.52;7.22;;;;;;;;;;6183580;23;20414;-68
2023/12/04 17:30:51;;;;;;;13.00;5.85;;;;;;;;;;6183436;23;20335;-69
2023/12/04 17:33:16;;;;;;;13.15;5.30;;;;;;;;;;6184116;23;20008;-68
2023/12/04 17:35:42;;;;;;;9.35;4.50;;;;;;;;;;6181219;23;20080;-68
2023/12/04 17:38:08;;;;;;;19.25;8.55;;;;;;;;;;6182910;23;20459;-68
2023/12/04 17:40:34;;;;;;;13.80;5.75;;;;;;;;;;6183560;23;20110;-68
2023/12/04 17:43:00;;;;;;;9.50;4.68;;;;;;;;;;6183248;23;20001;-69
2023/12/04 17:45:31;;;;;;;10.45;4.93;;;;;;;;;;6156587;23;20013;-68
2023/12/04 17:47:57;;;;;;;9.65;5.20;;;;;;;;;;6156894;23;20347;-68
2023/12/04 17:50:22;;;;;;;11.40;4.68;;;;;;;;;;6183450;23;20015;-71
2023/12/04 17:52:48;;;;;;;9.13;5.40;;;;;;;;;;6183156;23;20143;-70
2023/12/04 17:55:14;;;;;;;9.10;5.32;;;;;;;;;;6183374;23;20070;-71
2023/12/04 17:57:42;;;;;;;11.02;5.47;;;;;;;;;;6183849;23;20009;-72
2023/12/04 18:00:14;;;;;;;8.88;5.28;;;;;;;;;;6184170;23;20131;-71
2023/12/04 18:02:45;;;;;;;9.68;5.38;;;;;;;;;;6158850;23;20009;-72
2023/12/04 18:05:11;;;;;;;8.15;5.03;;;;;;;;;;6184018;23;20105;-72
2023/12/04 18:07:37;;;;;;;9.35;4.75;;;;;;;;;;6157272;23;20028;-71
2023/12/04 18:10:04;;;;;;;6.75;4.30;;;;;;;;;;6183678;23;20245;-70
2023/12/04 18:12:30;;;;;;;11.48;5.85;;;;;;;;;;6183945;23;20327;-71
2023/12/04 18:14:56;;;;;;;8.50;4.85;;;;;;;;;;6183297;23;20009;-72
2023/12/04 18:17:22;;;;;;;7.47;4.00;;;;;;;;;;6183711;23;20059;-71
2023/12/04 18:19:50;;;;;;;8.35;4.72;;;;;;;;;;6183328;23;20009;-70
2023/12/04 18:22:16;;;;;;;8.63;5.07;;;;;;;;;;6183663;23;20005;-70
2023/12/04 18:24:42;;;;;;;8.32;4.50;;;;;;;;;;6183701;23;20440;-71
2023/12/04 18:27:08;;;;;;;9.65;5.28;;;;;;;;;;6183815;23;20011;-70
2023/12/04 18:29:35;;;;;;;6.43;4.15;;;;;;;;;;6184063;23;20345;-72
2023/12/04 18:32:00;;;;;;;12.02;5.28;;;;;;;;;;6145256;23;20439;-71
2023/12/04 18:34:26;;;;;;;8.93;5.75;;;;;;;;;;6183130;23;20100;-72
2023/12/04 18:36:57;;;;;;;10.25;5.25;;;;;;;;;;6183572;23;20016;-72
2023/12/04 18:39:27;;;;;;;9.93;5.10;;;;;;;;;;6183898;23;20009;-71
2023/12/04 18:41:52;;;;;;;9.25;5.30;;;;;;;;;;6183883;23;20363;-72
2023/12/04 18:44:18;;;;;;;12.13;5.60;;;;;;;;;;6183361;23;20021;-72
2023/12/04 18:46:47;;;;;;;12.45;5.95;;;;;;;;;;6182670;23;20001;-71
2023/12/04 18:49:14;;;;;;;11.75;6.55;;;;;;;;;;6154499;23;20093;-71
2023/12/04 18:51:40;;;;;;;12.32;6.30;;;;;;;;;;6141636;23;161211;-71
2023/12/04 18:54:06;;;;;;;12.63;6.47;;;;;;;;;;6183804;23;20028;-70
2023/12/04 18:56:31;;;;;;;12.77;6.47;;;;;;;;;;6182536;23;20005;-71
2023/12/04 18:58:58;;;;;;;12.75;6.72;;;;;;;;;;6183360;23;20017;-72
2023/12/04 19:01:23;;;;;;;16.55;7.43;;;;;;;;;;6184184;23;20009;-71
2023/12/04 19:03:50;;;;;;;12.60;6.28;;;;;;;;;;6182734;23;20017;-71
2023/12/04 19:06:15;;;;;;;16.85;8.13;;;;;;;;;;6183198;23;19997;-72
2023/12/04 19:08:41;;;;;;;11.60;6.53;;;;;;;;;;6183728;23;20015;-72
2023/12/04 19:11:06;;;;;;;11.15;5.90;;;;;;;;;;6183359;23;20321;-71
2023/12/04 19:13:33;;;;;;;10.68;6.03;;;;;;;;;;6183975;23;20016;-72
2023/12/04 19:15:58;;;;;;;12.60;6.30;;;;;;;;;;6183287;23;20001;-71
2023/12/04 19:18:24;;;;;;;10.55;6.15;;;;;;;;;;6183785;23;20021;-71
2023/12/04 19:20:50;;;;;;;13.95;6.93;;;;;;;;;;6184337;23;20052;-71
2023/12/04 19:23:15;;;;;;;10.02;5.82;;;;;;;;;;6183606;23;20016;-70
2023/12/04 19:25:41;;;;;;;13.25;6.97;;;;;;;;;;6183323;23;20072;-73
2023/12/04 19:28:07;;;;;;;14.25;7.30;;;;;;;;;;6157560;23;20099;-71
2023/12/04 19:30:32;;;;;;;15.52;8.27;;;;;;;;;;6184102;23;20001;-71
2023/12/04 19:32:58;;;;;;;16.50;8.25;;;;;;;;;;6187445;23;20021;-72
2023/12/04 19:35:24;;;;;;;19.50;9.57;;;;;;;;;;6186034;23;20004;-72
2023/12/04 19:37:50;;;;;;;16.02;8.85;;;;;;;;;;6186132;23;20108;-72
2023/12/04 19:40:15;;;;;;;17.83;10.05;;;;;;;;;;6182989;23;20001;-72
2023/12/04 19:42:41;;;;;;;17.13;9.25;;;;;;;;;;6186031;23;20013;-72
2023/12/04 19:45:09;;;;;;;17.02;8.93;;;;;;;;;;6185596;23;19997;-72
2023/12/04 19:47:35;;;;;;;20.10;9.20;;;;;;;;;;6185479;23;20017;-71
2023/12/04 19:50:01;;;;;;;21.10;9.73;;;;;;;;;;6185825;23;20012;-73
2023/12/04 19:52:26;;;;;;;19.52;9.20;;;;;;;;;;6186566;23;20005;-71
2023/12/04 19:54:52;;;;;;;13.95;7.78;;;;;;;;;;6185515;23;20359;-71
2023/12/04 19:57:21;;;;;;;18.45;8.30;;;;;;;;;;6185451;23;20016;-71
2023/12/04 19:59:46;;;;;;;16.60;9.00;;;;;;;;;;6185611;23;20001;-73
2023/12/04 20:02:13;;;;;;;15.57;8.95;;;;;;;;;;6182032;23;20008;-73
2023/12/04 20:04:46;;;;;;;17.73;9.55;;;;;;;;;;6179045;23;20427;-71
2023/12/04 20:07:12;;;;;;;;;;;;;;;;;;6178872;23;20439;-71
2023/12/04 20:09:37;;;;;;;25.83;11.20;;;;;;;;;;6179509;23;19943;-71
2023/12/04 20:12:04;;;;;;;25.10;12.63;;;;;;;;;;6178845;23;20064;-72
2023/12/04 20:14:30;;;;;;;25.77;14.55;;;;;;;;;;6178712;23;20005;-73
2023/12/04 20:16:55;;;;;;;26.88;12.10;;;;;;;;;;6178662;23;20017;-72
2023/12/04 20:19:21;;;;;;;24.85;14.40;;;;;;;;;;6179337;23;20383;-73
2023/12/04 20:21:47;;;;;;;28.00;13.18;;;;;;;;;;6178041;23;20009;-71
2023/12/04 20:24:13;;;;;;;27.58;12.73;;;;;;;;;;6180040;23;20055;-72
2023/12/04 20:26:39;;;;;;;19.67;11.32;;;;;;;;;;6178617;23;20344;-73
2023/12/04 20:29:04;;;;;;;22.92;13.35;;;;;;;;;;6178962;23;20009;-72
2023/12/04 20:31:30;;;;;;;22.30;11.95;;;;;;;;;;6179327;23;20024;-72
2023/12/04 20:33:56;;;;;;;20.27;11.02;;;;;;;;;;6179092;23;20013;-72
2023/12/04 20:36:22;;;;;;;26.60;12.35;;;;;;;;;;6176262;23;20340;-73
2023/12/04 20:38:50;;;;;;;23.70;13.27;;;;;;;;;;6178865;23;20008;-73
2023/12/04 20:41:16;;;;;;;26.35;11.88;;;;;;;;;;6153269;23;20020;-72
2023/12/04 20:43:42;;;;;;;25.15;11.23;;;;;;;;;;6184107;23;20428;-72
2023/12/04 20:46:08;;;;;;;28.85;12.57;;;;;;;;;;6178828;23;20013;-71
2023/12/04 20:48:34;;;;;;;22.30;12.32;;;;;;;;;;6177622;23;20029;-72
2023/12/04 20:51:00;;;;;;;18.55;9.95;;;;;;;;;;6176911;23;20013;-73
2023/12/04 20:53:28;;;;;;;18.15;10.90;;;;;;;;;;6176941;23;20009;-74
2023/12/04 20:55:54;;;;;;;20.88;11.88;;;;;;;;;;6178290;23;20032;-73
2023/12/04 20:58:20;;;;;;;18.35;11.15;;;;;;;;;;6178787;23;20016;-73
2023/12/04 21:00:46;;;;;;;27.00;11.63;;;;;;;;;;6178216;23;20020;-73
2023/12/04 21:03:12;;;;;;;24.02;12.10;;;;;;;;;;6178006;23;20451;-72
2023/12/04 21:05:39;;;;;;;25.20;12.75;;;;;;;;;;6178179;23;20005;-72
2023/12/04 21:08:05;;;;;;;29.58;12.00;;;;;;;;;;6178833;23;20012;-72
2023/12/04 21:10:31;;;;;;;24.73;13.35;;;;;;;;;;6178833;23;20013;-73
2023/12/04 21:12:57;;;;;;;22.38;12.60;;;;;;;;;;6203045;23;20013;-73
2023/12/04 21:15:23;;;;;;;24.25;13.98;;;;;;;;;;6179525;23;20019;-72
2023/12/04 21:17:50;;;;;;;24.27;13.27;;;;;;;;;;6180910;23;20067;-73
2023/12/04 21:20:15;;;;;;;21.95;12.65;;;;;;;;;;6183509;23;20394;-74
2023/12/04 21:22:41;;;;;;;25.02;12.63;;;;;;;;;;6184918;23;20072;-72
2023/12/04 21:25:08;;;;;;;21.88;12.65;;;;;;;;;;6184121;23;20395;-73
2023/12/04 21:27:34;;;;;;;27.45;14.40;;;;;;;;;;6184503;23;20024;-74
2023/12/04 21:30:00;;;;;;;28.48;13.73;;;;;;;;;;6184070;23;20308;-72
2023/12/04 21:32:27;;;;;;;25.50;12.85;;;;;;;;;;6184795;23;20072;-74
2023/12/04 21:34:52;;;;;;;21.63;13.00;;;;;;;;;;6184176;23;20482;-73
2023/12/04 21:37:19;;;;;;;22.17;11.18;;;;;;;;;;6184431;23;20012;-74
2023/12/04 21:39:47;;;;;;;23.25;11.45;;;;;;;;;;6185071;23;20013;-72
2023/12/04 21:42:14;;;;;;;23.35;11.50;;;;;;;;;;6184342;23;20176;-73
2023/12/04 21:44:39;;;;;;;20.52;10.18;;;;;;;;;;6184329;23;20013;-74
2023/12/04 21:47:06;;;;;;;24.95;11.38;;;;;;;;;;6183540;23;20071;-74
2023/12/04 21:49:32;;;;;;;20.65;10.90;;;;;;;;;;6184872;23;20383;-73
2023/12/04 21:51:58;;;;;;;22.52;11.82;;;;;;;;;;6184605;23;20001;-73
2023/12/04 21:54:23;;;;;;;18.27;10.27;;;;;;;;;;6183388;23;20328;-73
2023/12/04 21:56:49;;;;;;;19.10;10.80;;;;;;;;;;6183858;23;20004;-73
2023/12/04 21:59:15;;;;;;;20.73;11.00;;;;;;;;;;6183449;23;20459;-74
2023/12/04 22:01:41;;;;;;;18.67;10.65;;;;;;;;;;6184259;23;20097;-73
2023/12/04 22:04:07;;;;;;;19.17;10.07;;;;;;;;;;6158169;23;20016;-73
2023/12/04 22:06:33;;;;;;;18.85;10.07;;;;;;;;;;6183864;23;20007;-73
2023/12/04 22:08:58;;;;;;;23.20;11.77;;;;;;;;;;6183676;23;20015;-73
2023/12/04 22:11:24;;;;;;;17.40;10.27;;;;;;;;;;6184330;23;20371;-73
2023/12/04 22:13:50;;;;;;;22.05;10.98;;;;;;;;;;6184215;23;20009;-73
2023/12/04 22:16:15;;;;;;;20.08;11.13;;;;;;;;;;6183469;23;19997;-73
2023/12/04 22:18:43;;;;;;;20.90;10.88;;;;;;;;;;6184047;23;20016;-73
2023/12/04 22:21:09;;;;;;;19.30;10.10;;;;;;;;;;6181540;23;20005;-74
2023/12/04 22:23:35;;;;;;;19.17;10.65;;;;;;;;;;6186479;23;20015;-73
2023/12/04 22:26:02;;;;;;;23.95;11.55;;;;;;;;;;6183923;23;20001;-72
2023/12/04 22:28:28;;;;;;;25.02;12.02;;;;;;;;;;6182733;23;20005;-72
2023/12/04 22:30:54;;;;;;;25.40;12.18;;;;;;;;;;6183825;23;20005;-73
2023/12/04 22:33:20;;;;;;;21.05;10.50;;;;;;;;;;6183797;23;20343;-72
2023/12/04 22:35:46;;;;;;;25.85;12.52;;;;;;;;;;6183102;23;19997;-73
2023/12/04 22:38:11;;;;;;;19.90;10.80;;;;;;;;;;6183899;23;20438;-73
2023/12/04 22:40:39;;;;;;;17.05;10.25;;;;;;;;;;6183931;23;20030;-72
2023/12/04 22:43:05;;;;;;;22.50;10.27;;;;;;;;;;6183262;23;20016;-72
2023/12/04 22:45:31;;;;;;;19.45;10.82;;;;;;;;;;6182739;23;20032;-72
2023/12/04 22:47:56;;;;;;;23.65;11.48;;;;;;;;;;6183935;23;20012;-72
2023/12/04 22:50:22;;;;;;;18.75;10.15;;;;;;;;;;6183481;23;20431;-72
2023/12/04 22:52:48;;;;;;;18.38;10.25;;;;;;;;;;6183471;23;20020;-72
2023/12/04 22:55:14;;;;;;;20.13;10.63;;;;;;;;;;6183159;23;20068;-72
2023/12/04 22:57:40;;;;;;;20.42;11.52;;;;;;;;;;6169503;23;20468;-72
2023/12/04 23:00:11;;;;;;;23.52;10.70;;;;;;;;;;6153631;23;20009;-73
2023/12/04 23:02:40;;;;;;;16.75;9.05;;;;;;;;;;6154007;23;20017;-73
2023/12/04 23:05:06;;;;;;;14.55;9.27;;;;;;;;;;6152438;23;20005;-73
2023/12/04 23:07:32;;;;;;;11.38;6.32;;;;;;;;;;6146641;23;20089;-73
2023/12/04 23:09:58;;;;;;;12.60;6.95;;;;;;;;;;6148272;23;20029;-73
2023/12/04 23:12:24;;;;;;;11.30;7.00;;;;;;;;;;6146873;23;20040;-73
2023/12/04 23:14:50;;;;;;;12.88;6.20;;;;;;;;;;6146986;23;20009;-73
2023/12/04 23:17:16;;;;;;;12.52;6.78;;;;;;;;;;6147723;23;20347;-72
2023/12/04 23:19:42;;;;;;;13.73;6.65;;;;;;;;;;6147063;23;20081;-72
2023/12/04 23:22:07;;;;;;;12.90;6.95;;;;;;;;;;6146129;23;20020;-73
2023/12/04 23:24:33;;;;;;;16.55;9.48;;;;;;;;;;6146875;23;20005;-73
2023/12/04 23:26:59;;;;;;;16.20;9.48;;;;;;;;;;6147100;23;20056;-73
2023/12/04 23:29:26;;;;;;;20.30;9.85;;;;;;;;;;6091904;23;20503;-72
2023/12/04 23:31:52;;;;;;;15.00;9.43;;;;;;;;;;6148076;23;20017;-73
2023/12/04 23:34:17;;;;;;;26.80;14.63;;;;;;;;;;6146808;23;20339;-73
2023/12/04 23:36:43;;;;;;;16.30;9.82;;;;;;;;;;6148904;23;20010;-72
2023/12/04 23:39:09;;;;;;;18.30;10.00;;;;;;;;;;6150477;23;20009;-72
2023/12/04 23:41:35;;;;;;;16.65;9.75;;;;;;;;;;6151576;23;20021;-72
2023/12/04 23:44:01;;;;;;;18.15;10.32;;;;;;;;;;6151847;23;20009;-72
2023/12/04 23:46:27;;;;;;;20.63;10.32;;;;;;;;;;6152435;23;20009;-72
2023/12/04 23:48:52;;;;;;;17.30;9.23;;;;;;;;;;6126166;23;20428;-73
2023/12/04 23:51:18;;;;;;;16.42;9.25;;;;;;;;;;6152247;23;20431;-72
2023/12/04 23:53:44;;;;;;;16.73;9.27;;;;;;;;;;6153105;23;20001;-71
2023/12/04 23:56:10;;;;;;;20.20;10.18;;;;;;;;;;6151688;23;20013;-72
2023/12/04 23:58:36;;;;;;;18.17;8.48;;;;;;;;;;6149822;23;20009;-72
